Time;durP1;ratioP1;P1;durP2;ratioP2;P2;SDS_P1;SDS_P2;PMS_P1;PMS_P2;Temp;Humidity;BMP_temperature;BMP_pressure;BME280_temperature;BME280_humidity;BME280_pressure;Samples;Min_cycle;Max_cycle;Signal;HPM_P1;HPM_P2
2023/03/27 00:01:10;;;;;;;3.97;2.00;;;;;;;;;;5011167;28;20042;-68
2023/03/27 00:03:38;;;;;;;7.78;3.13;;;;;;;;;;5010562;28;20133;-65
2023/03/27 00:06:07;;;;;;;7.13;2.50;;;;;;;;;;5010431;28;20522;-67
2023/03/27 00:08:35;;;;;;;3.85;2.45;;;;;;;;;;5010609;28;20081;-68
2023/03/27 00:11:03;;;;;;;5.63;2.50;;;;;;;;;;5010052;28;20046;-67
2023/03/27 00:13:31;;;;;;;6.32;2.08;;;;;;;;;;5010531;28;20492;-67
2023/03/27 00:15:58;;;;;;;5.07;1.70;;;;;;;;;;5009848;28;20495;-66
2023/03/27 00:18:26;;;;;;;4.40;1.60;;;;;;;;;;5010115;28;20046;-67
2023/03/27 00:20:53;;;;;;;5.57;2.38;;;;;;;;;;5010050;28;20062;-67
2023/03/27 00:23:21;;;;;;;7.72;2.33;;;;;;;;;;5010006;28;20054;-67
2023/03/27 00:25:48;;;;;;;6.63;2.13;;;;;;;;;;5009559;28;20065;-66
2023/03/27 00:28:16;;;;;;;6.78;2.10;;;;;;;;;;5010238;28;20552;-68
2023/03/27 00:30:43;;;;;;;9.20;3.30;;;;;;;;;;5009892;28;20230;-67
2023/03/27 00:33:11;;;;;;;6.43;3.35;;;;;;;;;;5010126;28;20107;-66
2023/03/27 00:35:38;;;;;;;10.75;3.55;;;;;;;;;;5009753;28;20058;-66
2023/03/27 00:38:06;;;;;;;11.77;3.60;;;;;;;;;;5010111;28;20046;-68
2023/03/27 00:40:33;;;;;;;8.10;3.92;;;;;;;;;;5009812;28;20630;-67
2023/03/27 00:42:59;;;;;;;9.02;4.30;;;;;;;;;;5010102;28;20487;-68
2023/03/27 00:45:31;;;;;;;14.32;3.92;;;;;;;;;;5009304;28;20362;-68
2023/03/27 00:48:03;;;;;;;9.40;3.83;;;;;;;;;;5009999;28;20061;-67
2023/03/27 00:50:32;;;;;;;11.68;4.10;;;;;;;;;;5009405;28;20053;-67
2023/03/27 00:53:03;;;;;;;8.10;4.63;;;;;;;;;;5009264;28;20054;-67
2023/03/27 00:55:33;;;;;;;10.02;5.32;;;;;;;;;;5009859;28;20559;-68
2023/03/27 00:58:03;;;;;;;11.63;5.00;;;;;;;;;;5009717;28;20042;-68
2023/03/27 01:00:33;;;;;;;16.60;5.13;;;;;;;;;;5009521;28;20052;-68
2023/03/27 01:03:01;;;;;;;8.90;5.03;;;;;;;;;;5009555;28;20042;-68
2023/03/27 01:05:27;;;;;;;12.55;4.55;;;;;;;;;;5009911;28;20056;-68
2023/03/27 01:07:55;;;;;;;9.73;4.63;;;;;;;;;;5009385;28;20050;-68
2023/03/27 01:10:25;;;;;;;9.07;4.03;;;;;;;;;;5009679;28;20054;-69
2023/03/27 01:12:59;;;;;;;6.90;3.28;;;;;;;;;;5009589;28;20407;-69
2023/03/27 01:15:37;;;;;;;9.98;4.25;;;;;;;;;;5009477;28;20058;-68
2023/03/27 01:18:18;;;;;;;6.60;2.60;;;;;;;;;;5009252;28;20050;-67
2023/03/27 01:21:08;;;;;;;12.23;3.50;;;;;;;;;;5009622;28;20050;-68
2023/03/27 01:24:19;;;;;;;9.00;3.30;;;;;;;;;;5009009;28;20042;-67
2023/03/27 01:26:58;;;;;;;4.72;2.65;;;;;;;;;;5009174;28;20045;-70
2023/03/27 01:29:32;;;;;;;6.25;2.50;;;;;;;;;;5009366;28;20056;-69
2023/03/27 01:32:21;;;;;;;5.10;2.60;;;;;;;;;;5009413;28;20064;-69
2023/03/27 01:35:01;;;;;;;9.65;3.38;;;;;;;;;;5009547;28;20050;-69
2023/03/27 01:37:57;;;;;;;7.68;2.95;;;;;;;;;;5008901;28;20054;-68
2023/03/27 01:40:32;;;;;;;6.07;2.97;;;;;;;;;;5009156;28;20046;-69
2023/03/27 01:43:03;;;;;;;7.47;3.67;;;;;;;;;;5008620;28;20046;-69
2023/03/27 01:45:34;;;;;;;8.27;3.10;;;;;;;;;;5009060;28;20745;-69
2023/03/27 01:48:06;;;;;;;9.13;2.50;;;;;;;;;;5008400;28;20053;-69
2023/03/27 01:50:39;;;;;;;9.15;2.67;;;;;;;;;;5009109;28;20155;-69
2023/03/27 01:53:12;;;;;;;7.05;2.53;;;;;;;;;;5008691;28;20046;-70
2023/03/27 01:55:45;;;;;;;3.90;1.98;;;;;;;;;;5008957;28;20584;-69
2023/03/27 01:58:15;;;;;;;5.32;2.20;;;;;;;;;;5008428;28;20052;-69
2023/03/27 02:00:45;;;;;;;6.18;2.17;;;;;;;;;;5008906;28;20046;-70
2023/03/27 02:03:17;;;;;;;5.47;2.20;;;;;;;;;;5008921;28;20050;-70
2023/03/27 02:05:49;;;;;;;13.57;2.90;;;;;;;;;;5007535;28;20042;-69
2023/03/27 02:08:19;;;;;;;5.70;2.10;;;;;;;;;;5008623;28;20046;-70
2023/03/27 02:10:51;;;;;;;5.88;1.90;;;;;;;;;;5008765;28;20095;-69
2023/03/27 02:13:22;;;;;;;5.10;2.03;;;;;;;;;;5008935;28;20053;-69
2023/03/27 02:15:50;;;;;;;9.20;2.05;;;;;;;;;;5008066;28;20061;-67
2023/03/27 02:18:22;;;;;;;3.35;2.08;;;;;;;;;;5008515;28;20046;-68
2023/03/27 02:20:49;;;;;;;6.68;1.92;;;;;;;;;;5007988;28;20045;-68
2023/03/27 02:23:15;;;;;;;8.73;2.35;;;;;;;;;;5008354;28;20052;-70
2023/03/27 02:25:44;;;;;;;6.80;2.00;;;;;;;;;;5007975;28;20058;-69
2023/03/27 02:28:36;;;;;;;6.57;1.85;;;;;;;;;;5008434;28;20073;-69
2023/03/27 02:31:11;;;;;;;6.07;2.28;;;;;;;;;;5008117;28;20136;-69
2023/03/27 02:33:46;;;;;;;3.80;1.88;;;;;;;;;;5008127;28;20042;-69
2023/03/27 02:36:23;;;;;;;17.95;2.72;;;;;;;;;;5007998;28;20050;-69
2023/03/27 02:38:53;;;;;;;6.47;1.70;;;;;;;;;;5008344;28;20072;-69
2023/03/27 02:41:30;;;;;;;11.75;2.17;;;;;;;;;;5007936;28;20046;-69
2023/03/27 02:44:04;;;;;;;7.32;1.75;;;;;;;;;;5008147;28;20046;-69
2023/03/27 02:46:37;;;;;;;6.53;2.15;;;;;;;;;;5008093;28;20049;-69
2023/03/27 02:49:08;;;;;;;7.13;2.00;;;;;;;;;;5008271;28;20050;-70
2023/03/27 02:51:39;;;;;;;5.97;2.22;;;;;;;;;;5007673;28;20054;-68
2023/03/27 02:54:11;;;;;;;4.75;1.80;;;;;;;;;;5008239;28;20103;-69
2023/03/27 02:56:43;;;;;;;14.52;2.80;;;;;;;;;;5007431;28;20056;-69
2023/03/27 02:59:15;;;;;;;7.77;2.03;;;;;;;;;;5007860;28;20339;-70
2023/03/27 03:01:44;;;;;;;7.15;1.88;;;;;;;;;;5007769;28;20042;-69
2023/03/27 03:04:15;;;;;;;6.57;2.33;;;;;;;;;;5007822;28;20053;-68
2023/03/27 03:06:43;;;;;;;4.78;2.30;;;;;;;;;;5007470;28;20106;-69
2023/03/27 03:09:10;;;;;;;4.43;2.17;;;;;;;;;;5007790;28;20081;-69
2023/03/27 03:11:38;;;;;;;6.50;2.00;;;;;;;;;;5007506;28;20431;-67
2023/03/27 03:14:05;;;;;;;5.60;1.55;;;;;;;;;;5007960;28;20053;-69
2023/03/27 03:16:33;;;;;;;9.82;2.00;;;;;;;;;;5009048;28;20056;-70
2023/03/27 03:19:00;;;;;;;6.10;1.70;;;;;;;;;;5011638;28;20046;-69
2023/03/27 03:21:27;;;;;;;4.22;1.60;;;;;;;;;;5011104;28;20081;-69
2023/03/27 03:23:54;;;;;;;7.25;1.70;;;;;;;;;;5010903;28;20052;-69
2023/03/27 03:26:21;;;;;;;6.38;1.88;;;;;;;;;;5010835;28;20104;-68
2023/03/27 03:28:47;;;;;;;5.25;1.25;;;;;;;;;;5010831;28;20069;-70
2023/03/27 03:31:15;;;;;;;3.63;1.50;;;;;;;;;;5011221;28;20050;-70
2023/03/27 03:33:43;;;;;;;6.53;1.95;;;;;;;;;;5010890;28;20061;-70
2023/03/27 03:36:13;;;;;;;5.93;1.83;;;;;;;;;;5010736;28;20053;-69
2023/03/27 03:38:40;;;;;;;5.57;1.90;;;;;;;;;;5010325;28;20050;-69
2023/03/27 03:41:07;;;;;;;3.65;1.63;;;;;;;;;;5010883;28;20487;-67
2023/03/27 03:43:34;;;;;;;6.50;2.42;;;;;;;;;;5010814;28;20493;-69
2023/03/27 03:46:01;;;;;;;7.05;1.83;;;;;;;;;;5010840;28;20429;-69
2023/03/27 03:48:28;;;;;;;7.15;2.05;;;;;;;;;;5010643;28;20050;-69
2023/03/27 03:50:56;;;;;;;8.45;1.50;;;;;;;;;;5010924;28;20049;-68
2023/03/27 03:53:22;;;;;;;8.43;1.75;;;;;;;;;;5010184;28;20054;-71
2023/03/27 03:55:51;;;;;;;6.97;2.38;;;;;;;;;;5010706;28;20483;-69
2023/03/27 03:58:18;;;;;;;7.70;1.60;;;;;;;;;;5010309;28;20054;-68
2023/03/27 04:00:45;;;;;;;5.60;1.60;;;;;;;;;;5010821;28;20042;-69
2023/03/27 04:03:13;;;;;;;5.55;1.67;;;;;;;;;;5010473;28;20501;-69
2023/03/27 04:05:40;;;;;;;3.65;1.60;;;;;;;;;;5010205;28;20046;-70
2023/03/27 04:08:08;;;;;;;7.80;2.10;;;;;;;;;;5010509;28;20099;-68
2023/03/27 04:10:36;;;;;;;5.75;1.83;;;;;;;;;;5010048;28;20054;-68
2023/03/27 04:13:03;;;;;;;3.53;1.80;;;;;;;;;;5010660;28;20067;-69
2023/03/27 04:15:30;;;;;;;7.70;1.92;;;;;;;;;;5009718;28;20046;-70
2023/03/27 04:17:57;;;;;;;6.25;1.67;;;;;;;;;;5010505;28;20064;-68
2023/03/27 04:20:25;;;;;;;6.05;2.10;;;;;;;;;;5010087;28;20111;-70
2023/03/27 04:22:53;;;;;;;6.57;1.60;;;;;;;;;;5010183;28;20048;-69
2023/03/27 04:25:23;;;;;;;4.50;1.77;;;;;;;;;;5021887;23;20050;-70
2023/03/27 04:27:51;;;;;;;7.60;1.75;;;;;;;;;;5008956;28;20479;-70
2023/03/27 04:30:21;;;;;;;5.00;1.38;;;;;;;;;;5009591;28;20050;-70
2023/03/27 04:32:49;;;;;;;4.25;1.77;;;;;;;;;;5010042;28;20132;-70
2023/03/27 04:35:17;;;;;;;6.28;1.60;;;;;;;;;;5009440;28;20510;-70
2023/03/27 04:37:44;;;;;;;3.70;1.30;;;;;;;;;;5011250;28;20046;-69
2023/03/27 04:40:13;;;;;;;6.32;1.40;;;;;;;;;;5009250;28;20060;-69
2023/03/27 04:42:42;;;;;;;3.65;1.50;;;;;;;;;;5009607;28;20490;-69
2023/03/27 04:45:12;;;;;;;2.90;1.80;;;;;;;;;;5008837;28;20054;-69
2023/03/27 04:47:39;;;;;;;7.70;1.58;;;;;;;;;;5009108;28;20106;-69
2023/03/27 04:50:08;;;;;;;4.53;1.42;;;;;;;;;;5009257;28;20054;-69
2023/03/27 04:52:34;;;;;;;7.22;2.63;;;;;;;;;;5009456;28;20083;-69
2023/03/27 04:55:02;;;;;;;4.93;1.67;;;;;;;;;;5009651;28;20113;-69
2023/03/27 04:57:30;;;;;;;5.95;1.83;;;;;;;;;;5008866;28;20132;-72
2023/03/27 04:59:59;;;;;;;7.10;2.00;;;;;;;;;;5009436;28;20050;-71
2023/03/27 05:02:26;;;;;;;5.50;1.92;;;;;;;;;;5009344;28;20042;-73
2023/03/27 05:04:57;;;;;;;4.82;1.83;;;;;;;;;;5009297;28;20448;-70
2023/03/27 05:07:25;;;;;;;5.32;1.80;;;;;;;;;;5008923;28;20077;-70
2023/03/27 05:09:52;;;;;;;6.40;2.58;;;;;;;;;;5009205;28;20049;-70
2023/03/27 05:12:19;;;;;;;3.70;1.80;;;;;;;;;;5008924;28;20423;-72
2023/03/27 05:14:47;;;;;;;4.88;1.70;;;;;;;;;;5009138;28;20049;-70
2023/03/27 05:17:15;;;;;;;7.55;2.03;;;;;;;;;;5008387;28;20054;-69
2023/03/27 05:19:42;;;;;;;5.72;1.98;;;;;;;;;;5008898;28;20518;-70
2023/03/27 05:22:09;;;;;;;9.50;3.22;;;;;;;;;;5008666;28;20089;-71
2023/03/27 05:24:35;;;;;;;6.72;2.10;;;;;;;;;;5009036;28;20546;-69
2023/03/27 05:27:02;;;;;;;3.67;1.90;;;;;;;;;;5008397;28;20084;-69
2023/03/27 05:29:29;;;;;;;2.45;1.98;;;;;;;;;;5008832;28;20085;-71
2023/03/27 05:31:55;;;;;;;6.95;2.17;;;;;;;;;;5008835;28;20053;-69
2023/03/27 05:34:25;;;;;;;9.43;3.25;;;;;;;;;;5009243;28;20501;-70
2023/03/27 05:36:52;;;;;;;6.82;2.63;;;;;;;;;;5009037;28;20077;-70
2023/03/27 05:39:19;;;;;;;6.80;2.42;;;;;;;;;;5008453;28;20133;-71
2023/03/27 05:41:45;;;;;;;6.65;2.70;;;;;;;;;;5008769;28;20045;-70
2023/03/27 05:44:12;;;;;;;9.25;2.70;;;;;;;;;;5008616;28;20079;-70
2023/03/27 05:46:41;;;;;;;6.43;2.30;;;;;;;;;;5008357;28;20050;-71
2023/03/27 05:49:08;;;;;;;10.93;2.97;;;;;;;;;;5008683;28;20085;-70
2023/03/27 05:51:35;;;;;;;6.35;2.78;;;;;;;;;;5008832;28;20416;-70
2023/03/27 05:54:02;;;;;;;3.88;2.22;;;;;;;;;;5008288;28;20104;-70
2023/03/27 05:56:29;;;;;;;7.38;3.45;;;;;;;;;;5008665;28;20050;-69
2023/03/27 05:58:56;;;;;;;7.85;3.30;;;;;;;;;;5008195;28;20050;-70
2023/03/27 06:01:23;;;;;;;5.95;3.05;;;;;;;;;;5008135;28;20049;-70
2023/03/27 06:03:53;;;;;;;5.68;2.53;;;;;;;;;;5008129;28;20054;-69
2023/03/27 06:06:20;;;;;;;3.58;2.10;;;;;;;;;;5008169;28;20519;-72
2023/03/27 06:08:48;;;;;;;5.07;2.50;;;;;;;;;;5006874;28;20140;-69
2023/03/27 06:11:15;;;;;;;2.90;1.98;;;;;;;;;;5007571;28;20052;-70
2023/03/27 06:13:42;;;;;;;5.63;2.22;;;;;;;;;;5005243;28;20046;-72
2023/03/27 06:16:10;;;;;;;5.47;2.00;;;;;;;;;;4988229;28;20042;-70
2023/03/27 06:18:37;;;;;;;8.80;2.42;;;;;;;;;;4985557;28;20050;-70
2023/03/27 06:21:04;;;;;;;5.30;1.75;;;;;;;;;;4986594;28;20051;-69
2023/03/27 06:23:31;;;;;;;8.05;2.20;;;;;;;;;;4987430;28;20055;-71
2023/03/27 06:25:59;;;;;;;7.28;2.47;;;;;;;;;;4987263;28;20608;-70
2023/03/27 06:28:27;;;;;;;4.95;2.05;;;;;;;;;;4986843;28;20682;-73
2023/03/27 06:30:54;;;;;;;4.30;2.10;;;;;;;;;;4987164;28;20485;-69
2023/03/27 06:33:21;;;;;;;5.38;2.13;;;;;;;;;;4987697;28;20050;-70
2023/03/27 06:35:48;;;;;;;5.55;1.92;;;;;;;;;;4999257;28;20141;-70
2023/03/27 06:38:17;;;;;;;6.43;3.30;;;;;;;;;;5006319;28;20418;-73
2023/03/27 06:40:45;;;;;;;7.00;2.70;;;;;;;;;;5007026;28;20046;-70
2023/03/27 06:43:16;;;;;;;4.97;2.50;;;;;;;;;;5006258;28;20095;-70
2023/03/27 06:45:45;;;;;;;4.85;2.30;;;;;;;;;;5006970;28;20462;-70
2023/03/27 06:48:12;;;;;;;11.43;2.80;;;;;;;;;;5006042;28;20474;-70
2023/03/27 06:50:39;;;;;;;9.65;3.50;;;;;;;;;;5005986;28;20140;-71
2023/03/27 06:53:06;;;;;;;8.43;2.70;;;;;;;;;;5005959;28;20128;-70
2023/03/27 06:55:34;;;;;;;6.85;2.70;;;;;;;;;;5006344;28;20060;-72
2023/03/27 06:58:02;;;;;;;8.55;3.15;;;;;;;;;;5006266;28;20091;-71
2023/03/27 07:00:33;;;;;;;9.15;3.00;;;;;;;;;;5005984;28;20114;-70
2023/03/27 07:03:03;;;;;;;9.65;2.60;;;;;;;;;;5006599;28;20089;-70
2023/03/27 07:05:32;;;;;;;7.07;2.47;;;;;;;;;;4991383;28;20481;-73
2023/03/27 07:07:59;;;;;;;10.52;2.42;;;;;;;;;;4986255;28;20438;-69
2023/03/27 07:10:26;;;;;;;4.70;1.90;;;;;;;;;;4984840;28;20397;-70
2023/03/27 07:12:54;;;;;;;7.07;3.78;;;;;;;;;;4996196;28;20042;-71
2023/03/27 07:15:22;;;;;;;6.50;3.00;;;;;;;;;;5005860;28;20469;-70
2023/03/27 07:17:55;;;;;;;7.60;3.60;;;;;;;;;;4992296;28;20050;-70
2023/03/27 07:20:22;;;;;;;5.45;2.40;;;;;;;;;;5003651;28;20050;-73
2023/03/27 07:22:49;;;;;;;6.38;2.60;;;;;;;;;;5005660;28;20454;-70
2023/03/27 07:25:16;;;;;;;7.18;2.30;;;;;;;;;;5005871;28;20300;-70
2023/03/27 07:27:43;;;;;;;6.60;1.92;;;;;;;;;;5005204;28;20134;-71
2023/03/27 07:30:12;;;;;;;8.05;1.67;;;;;;;;;;5006355;28;20057;-70
2023/03/27 07:32:40;;;;;;;4.35;1.35;;;;;;;;;;5005138;28;20065;-70
2023/03/27 07:35:09;;;;;;;6.68;2.42;;;;;;;;;;4994419;28;20129;-69
2023/03/27 07:37:37;;;;;;;5.43;1.60;;;;;;;;;;4993931;28;20050;-69
2023/03/27 07:40:06;;;;;;;7.25;1.80;;;;;;;;;;5013193;28;20054;-72
2023/03/27 07:42:34;;;;;;;3.97;1.27;;;;;;;;;;4996185;28;20081;-71
2023/03/27 07:45:01;;;;;;;5.00;1.98;;;;;;;;;;4989350;28;20401;-71
2023/03/27 07:47:28;;;;;;;10.10;1.90;;;;;;;;;;4995082;28;20050;-71
2023/03/27 07:49:55;;;;;;;7.85;1.75;;;;;;;;;;5006628;28;20037;-71
2023/03/27 07:52:23;;;;;;;5.20;1.60;;;;;;;;;;5013979;28;20038;-70
2023/03/27 07:54:50;;;;;;;8.05;1.58;;;;;;;;;;5024729;28;20043;-70
2023/03/27 07:57:17;;;;;;;7.97;2.00;;;;;;;;;;5066769;28;20048;-70
2023/03/27 07:59:44;;;;;;;4.22;1.48;;;;;;;;;;5035811;28;20137;-72
2023/03/27 08:02:11;;;;;;;3.95;1.80;;;;;;;;;;5058777;28;20044;-71
2023/03/27 08:04:37;;;;;;;8.15;1.75;;;;;;;;;;5082973;28;20044;-71
2023/03/27 08:07:04;;;;;;;3.85;1.73;;;;;;;;;;4999799;28;20141;-71
2023/03/27 08:09:32;;;;;;;4.88;1.63;;;;;;;;;;5001257;28;20145;-70
2023/03/27 08:11:59;;;;;;;3.95;1.50;;;;;;;;;;5002183;28;20258;-69
2023/03/27 08:14:26;;;;;;;6.32;1.70;;;;;;;;;;5001490;28;20552;-71
2023/03/27 08:16:52;;;;;;;3.30;1.42;;;;;;;;;;5001205;28;20129;-71
2023/03/27 08:19:20;;;;;;;7.07;1.80;;;;;;;;;;5000731;28;20266;-70
2023/03/27 08:21:46;;;;;;;5.30;1.30;;;;;;;;;;5008975;28;20391;-72
2023/03/27 08:24:13;;;;;;;7.78;1.98;;;;;;;;;;5012497;28;20037;-71
2023/03/27 08:26:41;;;;;;;6.95;2.20;;;;;;;;;;5001482;28;20046;-72
2023/03/27 08:29:08;;;;;;;4.88;1.65;;;;;;;;;;5018450;28;20055;-72
2023/03/27 08:31:34;;;;;;;6.53;1.80;;;;;;;;;;5005775;28;20423;-70
2023/03/27 08:34:01;;;;;;;6.32;1.67;;;;;;;;;;4998788;28;20422;-71
2023/03/27 08:36:28;;;;;;;7.13;2.33;;;;;;;;;;4988187;28;20522;-70
2023/03/27 08:38:54;;;;;;;3.30;1.55;;;;;;;;;;5001473;28;20265;-71
2023/03/27 08:41:29;;;;;;;2.67;1.33;;;;;;;;;;5002825;28;20092;-70
2023/03/27 08:44:02;;;;;;;3.53;1.23;;;;;;;;;;4992018;28;20049;-70
2023/03/27 08:46:36;;;;;;;3.65;1.50;;;;;;;;;;4983162;28;20054;-72
2023/03/27 08:49:07;;;;;;;2.60;1.38;;;;;;;;;;4982139;28;20170;-71
2023/03/27 08:51:38;;;;;;;3.95;1.92;;;;;;;;;;4982638;28;20047;-71
2023/03/27 08:54:08;;;;;;;3.60;1.42;;;;;;;;;;4982247;28;20129;-71
2023/03/27 08:56:36;;;;;;;4.13;1.40;;;;;;;;;;4982497;28;20054;-70
2023/03/27 08:59:10;;;;;;;6.15;1.70;;;;;;;;;;4982324;28;20057;-72
2023/03/27 09:01:44;;;;;;;4.43;1.20;;;;;;;;;;4983095;28;20613;-70
2023/03/27 09:04:22;;;;;;;3.38;1.25;;;;;;;;;;4983987;28;20150;-70
2023/03/27 09:06:57;;;;;;;5.10;1.30;;;;;;;;;;5002226;28;20124;-71
2023/03/27 09:09:36;;;;;;;2.70;1.30;;;;;;;;;;5002477;28;20133;-71
2023/03/27 09:12:11;;;;;;;5.20;1.75;;;;;;;;;;5001471;28;20183;-72
2023/03/27 09:14:42;;;;;;;7.15;1.60;;;;;;;;;;4990169;28;20134;-72
2023/03/27 09:17:15;;;;;;;4.05;1.50;;;;;;;;;;4979938;28;20420;-73
2023/03/27 09:19:44;;;;;;;;;;;;;;;;;;4981721;28;20314;-72
2023/03/27 09:22:14;;;;;;;3.40;1.73;;;;;;;;;;4982019;28;20310;-72
2023/03/27 09:24:43;;;;;;;13.30;2.47;;;;;;;;;;4994503;28;20056;-72
2023/03/27 09:27:18;;;;;;;1.95;1.45;;;;;;;;;;5000845;28;20158;-72
2023/03/27 09:29:53;;;;;;;4.88;1.80;;;;;;;;;;4990426;28;20054;-73
2023/03/27 09:32:19;;;;;;;4.57;1.70;;;;;;;;;;4996033;28;20049;-70
2023/03/27 09:34:46;;;;;;;5.95;1.60;;;;;;;;;;4990327;28;20038;-71
2023/03/27 09:37:16;;;;;;;2.63;1.75;;;;;;;;;;4996743;28;20129;-70
2023/03/27 09:39:46;;;;;;;4.57;1.70;;;;;;;;;;5011529;28;20049;-71
2023/03/27 09:42:18;;;;;;;4.18;1.55;;;;;;;;;;5012241;28;20054;-70
2023/03/27 09:44:50;;;;;;;5.32;1.92;;;;;;;;;;5020960;28;20045;-70
2023/03/27 09:47:21;;;;;;;4.55;1.73;;;;;;;;;;5015869;28;20045;-72
2023/03/27 09:49:53;;;;;;;4.55;1.60;;;;;;;;;;5010042;28;20047;-72
2023/03/27 09:52:34;;;;;;;3.95;1.90;;;;;;;;;;5002421;28;20060;-70
2023/03/27 09:55:01;;;;;;;4.43;1.48;;;;;;;;;;4996165;28;20074;-71
2023/03/27 09:57:32;;;;;;;3.90;1.75;;;;;;;;;;5008713;28;20304;-70
2023/03/27 10:00:08;;;;;;;2.45;1.65;;;;;;;;;;5008697;28;20095;-71
2023/03/27 10:02:37;;;;;;;2.33;1.80;;;;;;;;;;5000133;28;20427;-72
2023/03/27 10:05:10;;;;;;;2.42;1.88;;;;;;;;;;5001596;28;20065;-71
2023/03/27 10:07:38;;;;;;;3.22;1.60;;;;;;;;;;5002826;28;20431;-70
2023/03/27 10:10:10;;;;;;;2.70;1.60;;;;;;;;;;5006428;28;20144;-70
2023/03/27 10:12:37;;;;;;;4.00;2.10;;;;;;;;;;5022108;28;20302;-70
2023/03/27 10:15:24;;;;;;;2.42;1.83;;;;;;;;;;5006355;28;20045;-69
2023/03/27 10:17:51;;;;;;;4.50;1.75;;;;;;;;;;5003306;28;20056;-71
2023/03/27 10:20:20;;;;;;;3.13;1.60;;;;;;;;;;4984515;28;20055;-72
2023/03/27 10:22:52;;;;;;;3.17;1.75;;;;;;;;;;4999841;28;20046;-71
2023/03/27 10:25:20;;;;;;;2.85;1.65;;;;;;;;;;5006171;23;20099;-68
2023/03/27 10:27:47;;;;;;;2.95;1.00;;;;;;;;;;4984209;28;20133;-66
2023/03/27 10:30:31;;;;;;;0.70;0.70;;;;;;;;;;4985099;28;20054;-65
2023/03/27 10:32:58;;;;;;;1.77;1.00;;;;;;;;;;4985901;28;20080;-66
2023/03/27 10:35:27;;;;;;;2.00;1.02;;;;;;;;;;5014733;28;20535;-69
2023/03/27 10:37:55;;;;;;;1.77;0.90;;;;;;;;;;5003413;28;20060;-69
2023/03/27 10:40:25;;;;;;;1.52;1.13;;;;;;;;;;5002835;28;20201;-69
2023/03/27 10:42:54;;;;;;;1.52;1.00;;;;;;;;;;5003829;28;20042;-69
2023/03/27 10:45:22;;;;;;;1.40;0.90;;;;;;;;;;5001939;28;20457;-69
2023/03/27 10:47:53;;;;;;;2.65;1.20;;;;;;;;;;4985106;28;20173;-69
2023/03/27 10:50:22;;;;;;;2.28;1.25;;;;;;;;;;4985920;28;20513;-69
2023/03/27 10:52:59;;;;;;;5.00;1.75;;;;;;;;;;4995087;28;20053;-69
2023/03/27 10:55:40;;;;;;;1.00;0.90;;;;;;;;;;4984458;28;20257;-69
2023/03/27 10:58:20;;;;;;;2.40;1.08;;;;;;;;;;4984517;28;20111;-69
2023/03/27 11:00:51;;;;;;;2.25;1.10;;;;;;;;;;4983882;28;20062;-69
2023/03/27 11:03:26;;;;;;;2.28;1.30;;;;;;;;;;4985264;28;20552;-69
2023/03/27 11:05:54;;;;;;;1.33;1.10;;;;;;;;;;5003410;28;20265;-69
2023/03/27 11:08:28;;;;;;;2.05;1.23;;;;;;;;;;5001484;28;20092;-69
2023/03/27 11:10:57;;;;;;;1.00;0.90;;;;;;;;;;4990230;28;20608;-69
2023/03/27 11:13:28;;;;;;;1.58;1.00;;;;;;;;;;5001446;28;20071;-69
2023/03/27 11:16:02;;;;;;;1.10;0.90;;;;;;;;;;4989351;28;20111;-69
2023/03/27 11:18:36;;;;;;;2.63;1.00;;;;;;;;;;4987201;28;20046;-69
2023/03/27 11:21:11;;;;;;;0.88;0.80;;;;;;;;;;4993378;28;20045;-69
2023/03/27 11:23:42;;;;;;;1.52;0.90;;;;;;;;;;4984991;28;20055;-69
2023/03/27 11:26:14;;;;;;;3.20;1.48;;;;;;;;;;5003134;28;20042;-69
2023/03/27 11:28:45;;;;;;;1.77;0.60;;;;;;;;;;4997418;28;20050;-69
2023/03/27 11:31:32;;;;;;;0.77;0.60;;;;;;;;;;4983826;28;20051;-68
2023/03/27 11:34:05;;;;;;;1.02;0.90;;;;;;;;;;4983472;28;20047;-69
2023/03/27 11:36:39;;;;;;;;;;;;;;;;;;4983447;28;20046;-68
2023/03/27 11:39:14;;;;;;;0.90;0.90;;;;;;;;;;4986418;28;19922;-69
2023/03/27 11:41:41;;;;;;;3.03;0.90;;;;;;;;;;4986528;28;20057;-69
2023/03/27 11:44:09;;;;;;;2.78;1.10;;;;;;;;;;4986582;28;20046;-69
2023/03/27 11:46:48;;;;;;;1.50;1.15;;;;;;;;;;4986630;28;20065;-69
2023/03/27 11:49:30;;;;;;;3.78;1.10;;;;;;;;;;4990314;28;20077;-69
2023/03/27 11:52:07;;;;;;;2.00;1.10;;;;;;;;;;5000377;28;20182;-69
2023/03/27 11:54:52;;;;;;;2.00;0.80;;;;;;;;;;5005759;28;20053;-69
2023/03/27 11:57:22;;;;;;;1.42;0.75;;;;;;;;;;5006721;28;20053;-69
2023/03/27 12:00:04;;;;;;;5.57;3.53;;;;;;;;;;5006155;28;20495;-69
2023/03/27 12:03:00;;;;;;;1.75;0.93;;;;;;;;;;5006527;28;20469;-69
2023/03/27 12:05:41;;;;;;;1.48;0.90;;;;;;;;;;4999413;28;20480;-69
2023/03/27 12:08:17;;;;;;;1.60;0.75;;;;;;;;;;4994766;28;20450;-69
2023/03/27 12:10:48;;;;;;;1.55;1.38;;;;;;;;;;4986330;28;20419;-69
2023/03/27 12:13:49;;;;;;;6.60;4.63;;;;;;;;;;4986861;28;20046;-69
2023/03/27 12:16:33;;;;;;;2.92;0.90;;;;;;;;;;4986385;28;20043;-69
2023/03/27 12:19:16;;;;;;;2.88;0.77;;;;;;;;;;4985987;28;20047;-68
2023/03/27 12:21:57;;;;;;;2.23;1.00;;;;;;;;;;4992777;28;20042;-69
2023/03/27 12:24:37;;;;;;;6.70;1.20;;;;;;;;;;5007343;28;20772;-69
2023/03/27 12:27:26;;;;;;;3.38;1.00;;;;;;;;;;5006766;28;20417;-68
2023/03/27 12:30:17;;;;;;;0.60;0.60;;;;;;;;;;5007796;28;20430;-69
2023/03/27 12:33:05;;;;;;;1.58;0.95;;;;;;;;;;5008283;28;20091;-69
2023/03/27 12:35:35;;;;;;;3.17;0.90;;;;;;;;;;5009019;28;20388;-69
2023/03/27 12:38:07;;;;;;;2.97;0.90;;;;;;;;;;5008754;28;20049;-68
2023/03/27 12:40:39;;;;;;;0.88;0.73;;;;;;;;;;5009093;28;20490;-69
2023/03/27 12:43:22;;;;;;;2.80;1.15;;;;;;;;;;5009680;28;20042;-69
2023/03/27 12:46:10;;;;;;;2.30;0.90;;;;;;;;;;5008885;28;20046;-69
2023/03/27 12:48:49;;;;;;;1.85;1.10;;;;;;;;;;5008671;28;20058;-69
2023/03/27 12:51:18;;;;;;;5.50;1.02;;;;;;;;;;5005466;28;20134;-69
2023/03/27 12:53:53;;;;;;;2.20;0.90;;;;;;;;;;5003080;28;20038;-69
2023/03/27 12:56:34;;;;;;;4.10;0.90;;;;;;;;;;4988982;28;20046;-69
2023/03/27 12:59:02;;;;;;;3.55;0.98;;;;;;;;;;4989463;28;20542;-69
2023/03/27 13:01:53;;;;;;;3.47;1.05;;;;;;;;;;4989185;28;20079;-69
2023/03/27 13:04:43;;;;;;;2.03;0.75;;;;;;;;;;4989400;28;20434;-69
2023/03/27 13:07:18;;;;;;;2.22;1.00;;;;;;;;;;4996717;28;20451;-69
2023/03/27 13:09:59;;;;;;;2.30;1.15;;;;;;;;;;4989515;28;20050;-69
2023/03/27 13:12:42;;;;;;;3.90;0.90;;;;;;;;;;5006093;28;20050;-71
2023/03/27 13:15:22;;;;;;;2.15;1.30;;;;;;;;;;5009040;28;20082;-69
2023/03/27 13:18:17;;;;;;;4.03;2.00;;;;;;;;;;5007684;28;20539;-69
2023/03/27 13:20:48;;;;;;;3.50;1.23;;;;;;;;;;5008185;28;20048;-69
2023/03/27 13:23:27;;;;;;;3.83;1.30;;;;;;;;;;5007395;28;20103;-69
2023/03/27 13:26:09;;;;;;;2.75;1.33;;;;;;;;;;5008151;28;20046;-69
2023/03/27 13:28:37;;;;;;;5.55;2.03;;;;;;;;;;5008773;28;20072;-69
2023/03/27 13:31:06;;;;;;;4.20;1.98;;;;;;;;;;5007947;28;20050;-69
2023/03/27 13:33:44;;;;;;;2.67;0.98;;;;;;;;;;5008496;28;20046;-69
2023/03/27 13:36:16;;;;;;;2.10;0.95;;;;;;;;;;5001240;28;20061;-69
2023/03/27 13:39:17;;;;;;;1.58;0.80;;;;;;;;;;4988699;28;20047;-69
2023/03/27 13:41:56;;;;;;;1.58;0.90;;;;;;;;;;4988232;28;20125;-69
2023/03/27 13:44:32;;;;;;;1.13;0.60;;;;;;;;;;4988964;28;20061;-69
2023/03/27 13:47:10;;;;;;;0.75;0.73;;;;;;;;;;4988169;28;20074;-69
2023/03/27 13:50:07;;;;;;;0.85;0.70;;;;;;;;;;5005261;28;20053;-69
2023/03/27 13:53:01;;;;;;;2.58;1.30;;;;;;;;;;5007193;28;20483;-69
2023/03/27 13:55:53;;;;;;;2.60;0.90;;;;;;;;;;4988550;28;20054;-69
2023/03/27 13:58:47;;;;;;;3.28;1.00;;;;;;;;;;4987697;28;20046;-69
2023/03/27 14:01:27;;;;;;;2.25;0.90;;;;;;;;;;4987672;28;20057;-69
2023/03/27 14:04:26;;;;;;;2.58;1.20;;;;;;;;;;4988352;28;20531;-69
2023/03/27 14:07:19;;;;;;;3.05;1.00;;;;;;;;;;4989745;28;20057;-69
2023/03/27 14:09:52;;;;;;;;;;;;;;;;;;5008378;28;20052;-69
2023/03/27 14:12:27;;;;;;;2.05;1.00;;;;;;;;;;5008132;28;20370;-69
2023/03/27 14:15:17;;;;;;;1.58;1.20;;;;;;;;;;5007624;28;20050;-70
2023/03/27 14:17:59;;;;;;;3.15;1.00;;;;;;;;;;5001975;28;20053;-69
2023/03/27 14:20:28;;;;;;;2.72;1.23;;;;;;;;;;4987940;28;20046;-69
2023/03/27 14:22:58;;;;;;;1.48;1.20;;;;;;;;;;4987883;28;20053;-69
2023/03/27 14:25:30;;;;;;;2.53;1.20;;;;;;;;;;5005676;28;20060;-69
2023/03/27 14:27:57;;;;;;;2.00;1.05;;;;;;;;;;5007247;28;20107;-69
2023/03/27 14:30:26;;;;;;;1.40;0.77;;;;;;;;;;5008165;28;20102;-69
2023/03/27 14:32:54;;;;;;;0.98;0.85;;;;;;;;;;5007362;28;20542;-69
2023/03/27 14:35:43;;;;;;;1.67;0.70;;;;;;;;;;4999875;28;20050;-69
2023/03/27 14:38:20;;;;;;;1.10;1.00;;;;;;;;;;5003357;28;20054;-69
2023/03/27 14:40:49;;;;;;;3.33;1.00;;;;;;;;;;5007639;28;20056;-69
2023/03/27 14:43:17;;;;;;;2.20;0.80;;;;;;;;;;5006909;28;20042;-69
2023/03/27 14:45:46;;;;;;;1.60;1.38;;;;;;;;;;5007700;28;20096;-69
2023/03/27 14:48:20;;;;;;;1.85;0.80;;;;;;;;;;5007152;28;20058;-69
2023/03/27 14:50:49;;;;;;;5.07;0.95;;;;;;;;;;5007790;28;20053;-69
2023/03/27 14:53:18;;;;;;;1.00;0.70;;;;;;;;;;5007403;28;20240;-69
2023/03/27 14:55:46;;;;;;;0.98;0.50;;;;;;;;;;5006322;28;20052;-69
2023/03/27 14:58:17;;;;;;;1.77;0.80;;;;;;;;;;4989393;28;20053;-70
2023/03/27 15:00:51;;;;;;;1.35;0.90;;;;;;;;;;4986937;28;20133;-69
2023/03/27 15:03:19;;;;;;;1.17;0.90;;;;;;;;;;4994605;28;20491;-69
2023/03/27 15:05:55;;;;;;;0.95;0.70;;;;;;;;;;4995514;28;20069;-70
2023/03/27 15:08:24;;;;;;;3.08;1.08;;;;;;;;;;4995434;28;20057;-70
2023/03/27 15:10:52;;;;;;;0.75;0.60;;;;;;;;;;4996751;28;20129;-69